createdAt,value
2024-05-09T00:02:24.711Z,49.13
2024-05-09T00:04:52.410Z,49.27
2024-05-09T00:07:20.087Z,49.33
2024-05-09T00:09:50.506Z,49.36
2024-05-09T00:12:18.054Z,49.58
2024-05-09T00:14:45.610Z,49.74
2024-05-09T00:17:13.262Z,49.86
2024-05-09T00:19:40.890Z,49.83
2024-05-09T00:22:08.593Z,49.95
2024-05-09T00:24:36.260Z,50.08
2024-05-09T00:27:04.437Z,50.39
2024-05-09T00:29:32.325Z,50.34
2024-05-09T00:32:00.146Z,50.52
2024-05-09T00:34:28.022Z,50.96
2024-05-09T00:36:55.673Z,50.75
2024-05-09T00:39:23.236Z,50.94
2024-05-09T00:41:50.746Z,51.06
2024-05-09T00:44:18.386Z,51.20
2024-05-09T00:46:45.922Z,51.08
2024-05-09T00:49:13.733Z,51.30
2024-05-09T00:51:41.733Z,51.36
2024-05-09T00:54:09.290Z,51.52
2024-05-09T00:56:36.885Z,51.51
2024-05-09T00:59:04.679Z,51.64
2024-05-09T01:01:32.471Z,51.66
2024-05-09T01:04:00.247Z,51.77
2024-05-09T01:06:27.845Z,52.02
2024-05-09T01:08:55.611Z,52.01
2024-05-09T01:11:23.238Z,52.01
2024-05-09T01:13:51.014Z,51.92
2024-05-09T01:16:18.725Z,52.34
2024-05-09T01:18:46.340Z,52.52
2024-05-09T01:21:14.146Z,52.45
2024-05-09T01:23:42.018Z,52.58
2024-05-09T01:26:09.646Z,52.82
2024-05-09T01:28:37.153Z,52.75
2024-05-09T01:31:04.824Z,53.04
2024-05-09T01:33:32.830Z,53.21
2024-05-09T01:36:00.726Z,53.27
2024-05-09T01:38:28.453Z,53.33
2024-05-09T01:40:56.094Z,53.65
2024-05-09T01:43:23.862Z,53.62
2024-05-09T01:45:51.470Z,53.50
2024-05-09T01:48:19.180Z,53.64
2024-05-09T01:50:46.776Z,53.63
2024-05-09T01:53:15.211Z,54.04
2024-05-09T01:55:43.655Z,54.19
2024-05-09T01:58:11.284Z,54.25
2024-05-09T02:00:42.177Z,54.48
2024-05-09T02:03:14.696Z,54.67
2024-05-09T02:05:45.724Z,54.68
2024-05-09T02:08:18.072Z,54.90
2024-05-09T02:10:47.604Z,54.75
2024-05-09T02:13:16.270Z,54.90
2024-05-09T02:15:44.109Z,55.25
2024-05-09T02:18:12.167Z,55.16
2024-05-09T02:20:41.174Z,55.36
2024-05-09T02:23:09.566Z,55.76
2024-05-09T02:25:37.408Z,55.56
2024-05-09T02:28:05.586Z,55.79
2024-05-09T02:30:39.282Z,55.93
2024-05-09T02:33:11.447Z,55.88
2024-05-09T02:35:41.608Z,56.10
2024-05-09T02:38:09.537Z,56.44
2024-05-09T02:40:39.206Z,56.33
2024-05-09T02:43:08.863Z,56.82
2024-05-09T02:45:38.353Z,56.95
2024-05-09T02:48:06.978Z,57.04
2024-05-09T02:50:38.987Z,57.32
2024-05-09T02:53:08.246Z,57.37
2024-05-09T02:55:36.874Z,57.38
2024-05-09T02:58:04.858Z,57.56
2024-05-09T03:00:39.104Z,57.49
2024-05-09T03:03:12.396Z,57.42
2024-05-09T03:05:43.535Z,57.49
2024-05-09T03:08:11.433Z,57.65
2024-05-09T03:10:39.891Z,57.79
2024-05-09T03:13:12.253Z,57.86
2024-05-09T03:15:40.643Z,58.10
2024-05-09T03:18:08.483Z,58.25
2024-05-09T03:20:37.054Z,58.16
2024-05-09T03:23:06.636Z,58.27
2024-05-09T03:25:34.611Z,58.58
2024-05-09T03:28:02.289Z,58.79
2024-05-09T03:30:39.074Z,58.90
2024-05-09T03:33:11.355Z,59.10
2024-05-09T03:35:39.144Z,59.36
2024-05-09T03:38:06.867Z,59.52
2024-05-09T03:40:34.469Z,59.73
2024-05-09T03:43:02.150Z,59.59
2024-05-09T03:45:29.692Z,59.59
2024-05-09T03:47:57.585Z,59.72
2024-05-09T03:50:30.396Z,60.10
2024-05-09T03:53:02.811Z,60.05
2024-05-09T03:55:30.706Z,59.96
2024-05-09T03:57:58.332Z,59.95
2024-05-09T04:00:34.402Z,60.14
2024-05-09T04:03:07.805Z,60.24
2024-05-09T04:05:39.347Z,60.33
2024-05-09T04:08:07.295Z,60.33
2024-05-09T04:10:35.572Z,60.60
2024-05-09T04:13:04.055Z,60.58
2024-05-09T04:15:32.319Z,60.44
2024-05-09T04:18:01.037Z,60.37
2024-05-09T04:20:37.276Z,60.48
2024-05-09T04:23:10.859Z,60.57
2024-05-09T04:25:41.163Z,60.62
2024-05-09T04:28:08.716Z,60.72
2024-05-09T04:30:39.603Z,60.67
2024-05-09T04:33:13.720Z,60.27
2024-05-09T04:35:43.345Z,60.15
2024-05-09T04:38:12.646Z,60.37
2024-05-09T04:40:40.275Z,60.17
2024-05-09T04:43:13.978Z,60.15
2024-05-09T04:45:41.596Z,60.23
2024-05-09T04:48:09.480Z,60.43
2024-05-09T04:50:39.255Z,60.42
2024-05-09T04:53:09.125Z,60.30
2024-05-09T04:55:38.781Z,60.31
2024-05-09T04:58:09.838Z,60.37
2024-05-09T05:00:41.338Z,60.25
2024-05-09T05:03:12.794Z,59.95
2024-05-09T05:05:44.483Z,59.67
2024-05-09T05:08:17.539Z,59.43
2024-05-09T05:10:46.882Z,59.10
2024-05-09T05:13:24.796Z,58.88
2024-05-09T05:15:55.171Z,58.62
2024-05-09T05:18:23.253Z,58.57
2024-05-09T05:20:51.312Z,58.48
2024-05-09T05:23:19.600Z,58.24
2024-05-09T05:25:52.526Z,58.20
2024-05-09T05:28:20.359Z,57.96
2024-05-09T05:30:47.955Z,57.84
2024-05-09T05:33:17.752Z,57.24
2024-05-09T05:35:45.399Z,57.20
2024-05-09T05:38:13.169Z,57.23
2024-05-09T05:40:41.274Z,57.05
2024-05-09T05:43:10.042Z,56.78
2024-05-09T05:45:38.623Z,56.18
2024-05-09T05:48:07.403Z,56.06
2024-05-09T05:50:37.620Z,56.04
2024-05-09T05:53:06.810Z,55.70
2024-05-09T05:55:35.190Z,55.63
2024-05-09T05:58:02.882Z,55.38
2024-05-09T06:00:37.819Z,55.51
2024-05-09T06:03:11.811Z,55.37
2024-05-09T06:05:40.705Z,54.90
2024-05-09T06:08:09.239Z,54.70
2024-05-09T06:10:39.880Z,54.34
2024-05-09T06:13:12.167Z,53.84
2024-05-09T06:15:40.184Z,53.67
2024-05-09T06:18:08.206Z,53.59
2024-05-09T06:20:38.031Z,53.42
2024-05-09T06:23:06.772Z,53.09
2024-05-09T06:25:35.604Z,53.02
2024-05-09T06:28:04.360Z,52.84
2024-05-09T06:30:38.624Z,52.63
2024-05-09T06:33:10.607Z,52.03
2024-05-09T06:35:39.936Z,51.68
2024-05-09T06:38:10.772Z,51.51
2024-05-09T06:40:40.816Z,51.09
2024-05-09T06:43:11.246Z,50.91
2024-05-09T06:45:39.364Z,50.58
2024-05-09T06:48:08.105Z,50.28
2024-05-09T06:50:38.199Z,49.77
2024-05-09T06:53:07.792Z,49.67
2024-05-09T06:55:36.028Z,48.88
2024-05-09T06:58:06.951Z,48.00
2024-05-09T07:00:39.375Z,46.60
2024-05-09T07:03:10.792Z,46.37
2024-05-09T07:05:39.693Z,45.99
2024-05-09T07:08:07.535Z,44.78
2024-05-09T07:10:36.370Z,44.54
2024-05-09T07:13:11.887Z,44.08
2024-05-09T07:15:40.190Z,43.07
2024-05-09T07:18:11.512Z,42.62
2024-05-09T07:20:40.113Z,42.23
2024-05-09T07:23:11.490Z,41.79
2024-05-09T07:25:39.821Z,41.04
2024-05-09T07:28:17.894Z,40.58
2024-05-09T07:30:45.544Z,39.80
2024-05-09T07:33:17.474Z,39.59
2024-05-09T07:35:45.305Z,39.10
2024-05-09T07:38:13.087Z,38.64
2024-05-09T07:40:41.426Z,38.10
2024-05-09T07:43:11.317Z,37.94
2024-05-09T07:45:48.648Z,37.76
2024-05-09T07:52:37.632Z,37.20
2024-05-09T07:53:47.909Z,36.72
2024-05-09T07:56:21.051Z,36.33
2024-05-09T07:58:50.776Z,36.13
2024-05-09T08:01:19.369Z,35.68
2024-05-09T08:03:50.013Z,35.37
2024-05-09T08:06:17.743Z,35.56
2024-05-09T08:08:47.068Z,35.12
2024-05-09T08:11:14.746Z,34.78
2024-05-09T08:13:42.227Z,34.84
2024-05-09T08:16:09.799Z,34.57
2024-05-09T08:18:37.527Z,34.44
2024-05-09T08:21:05.371Z,33.92
2024-05-09T08:23:32.888Z,34.03
2024-05-09T08:26:00.367Z,33.55
2024-05-09T08:28:28.320Z,33.15
2024-05-09T08:30:56.723Z,33.29
2024-05-09T08:33:24.577Z,33.28
2024-05-09T08:35:54.479Z,33.19
2024-05-09T08:38:22.119Z,33.54
2024-05-09T08:40:50.376Z,33.51
2024-05-09T08:43:19.269Z,33.68
2024-05-09T08:45:47.211Z,33.74
2024-05-09T08:48:16.083Z,33.48
2024-05-09T08:50:45.395Z,33.49
2024-05-09T08:53:14.985Z,33.43
2024-05-09T08:55:44.024Z,33.27
2024-05-09T08:58:16.734Z,33.54
2024-05-09T09:00:46.010Z,33.35
2024-05-09T09:03:18.513Z,33.05
2024-05-09T09:05:50.507Z,32.82
2024-05-09T09:08:18.113Z,32.75
2024-05-09T09:10:46.155Z,32.59
2024-05-09T09:13:13.719Z,32.14
2024-05-09T09:15:50.670Z,32.49
2024-05-09T09:18:18.851Z,32.61
2024-05-09T09:20:47.572Z,32.50
2024-05-09T09:23:15.294Z,32.04
2024-05-09T09:25:43.000Z,31.87
2024-05-09T09:28:12.122Z,32.14
2024-05-09T09:30:40.703Z,32.01
2024-05-09T09:33:08.816Z,32.25
2024-05-09T09:35:36.379Z,31.62
2024-05-09T09:38:05.648Z,31.78
2024-05-09T09:40:37.286Z,31.71
2024-05-09T09:43:11.855Z,31.55
2024-05-09T09:45:39.779Z,31.36
2024-05-09T09:48:07.836Z,31.17
2024-05-09T09:50:35.677Z,31.04
2024-05-09T09:53:03.869Z,30.78
2024-05-09T09:55:32.273Z,30.83
2024-05-09T09:58:00.027Z,30.55
2024-05-09T10:00:32.780Z,30.29
2024-05-09T10:03:02.049Z,30.06
2024-05-09T10:05:30.284Z,29.80
2024-05-09T10:07:58.526Z,30.19
2024-05-09T10:10:32.176Z,30.49
2024-05-09T10:13:07.404Z,30.04
2024-05-09T10:15:50.868Z,30.01
2024-05-09T10:18:28.025Z,29.85
2024-05-09T10:20:59.188Z,29.25
2024-05-09T10:23:28.488Z,29.42
2024-05-09T10:25:57.009Z,29.65
2024-05-09T10:28:28.256Z,29.55
2024-05-09T10:31:06.642Z,29.10
2024-05-09T10:33:38.556Z,29.07
2024-05-09T10:36:32.748Z,28.98
2024-05-09T10:39:00.425Z,29.37
2024-05-09T10:41:28.348Z,28.95
2024-05-09T10:43:55.966Z,29.18
2024-05-09T10:46:23.650Z,30.00
2024-05-09T10:48:52.221Z,29.52
2024-05-09T10:51:19.986Z,29.07
2024-05-09T10:53:47.780Z,29.58
2024-05-09T10:56:15.554Z,29.31
2024-05-09T10:58:43.251Z,29.06
2024-05-09T11:01:11.503Z,28.99
2024-05-09T11:03:39.787Z,28.83
2024-05-09T11:06:09.373Z,28.69
2024-05-09T11:08:36.962Z,28.62
2024-05-09T11:11:06.499Z,28.34
2024-05-09T11:13:34.886Z,28.33
2024-05-09T11:16:03.325Z,28.81
2024-05-09T11:18:35.127Z,28.53
2024-05-09T11:21:11.603Z,28.31
2024-05-09T11:23:39.150Z,28.16
2024-05-09T11:26:06.762Z,27.95
2024-05-09T11:28:34.451Z,28.22
2024-05-09T11:31:09.970Z,28.31
2024-05-09T11:33:42.490Z,27.61
2024-05-09T11:36:10.331Z,27.62
2024-05-09T11:38:37.880Z,27.72
2024-05-09T11:41:05.872Z,27.74
2024-05-09T11:43:33.679Z,27.73
2024-05-09T11:46:02.415Z,27.27
2024-05-09T11:48:30.651Z,27.35
2024-05-09T11:50:58.418Z,27.66
2024-05-09T11:53:26.032Z,26.87
2024-05-09T11:55:53.577Z,26.57
2024-05-09T11:58:22.473Z,26.42
2024-05-09T12:00:50.334Z,26.34
2024-05-09T12:03:18.168Z,26.37
2024-05-09T12:05:45.983Z,26.44
2024-05-09T12:08:13.967Z,26.23
2024-05-09T12:10:41.898Z,25.80
2024-05-09T12:13:09.638Z,25.35
2024-05-09T12:15:38.275Z,25.69
2024-05-09T12:18:07.574Z,26.01
2024-05-09T12:20:38.764Z,25.40
2024-05-09T12:23:08.837Z,25.46
2024-05-09T12:25:38.144Z,24.81
2024-05-09T12:28:05.935Z,24.85
2024-05-09T12:30:38.269Z,24.60
2024-05-09T12:33:12.458Z,24.50
2024-05-09T12:35:44.032Z,24.97
2024-05-09T12:38:14.486Z,24.62
2024-05-09T12:40:42.466Z,24.49
2024-05-09T12:43:11.389Z,23.55
2024-05-09T12:45:40.046Z,23.42
2024-05-09T12:48:10.825Z,23.30
2024-05-09T12:50:38.678Z,23.00
2024-05-09T12:53:06.253Z,23.19
2024-05-09T12:55:44.094Z,23.25
2024-05-09T12:58:17.670Z,23.74
2024-05-09T13:00:45.547Z,23.72
2024-05-09T13:03:13.553Z,23.74
2024-05-09T13:05:41.955Z,23.81
2024-05-09T13:08:09.898Z,23.84
2024-05-09T13:10:37.489Z,23.78
2024-05-09T13:13:05.229Z,23.79
2024-05-09T13:15:34.304Z,23.70
2024-05-09T13:18:03.651Z,23.75
2024-05-09T13:20:34.518Z,23.76
2024-05-09T13:23:04.663Z,23.51
2024-05-09T13:25:34.194Z,23.46
2024-05-09T13:28:02.814Z,23.69
2024-05-09T13:30:38.822Z,24.43
2024-05-09T13:33:11.241Z,24.34
2024-05-09T13:35:47.654Z,24.05
2024-05-09T13:38:19.071Z,24.97
2024-05-09T13:40:47.312Z,24.84
2024-05-09T13:43:15.579Z,24.96
2024-05-09T13:45:43.293Z,25.24
2024-05-09T13:48:11.140Z,25.65
2024-05-09T13:50:39.163Z,25.25
2024-05-09T13:53:08.191Z,25.21
2024-05-09T13:55:39.990Z,25.42
2024-05-09T13:58:08.533Z,26.02
2024-05-09T14:00:46.357Z,26.09
2024-05-09T14:03:18.430Z,26.46
2024-05-09T14:06:27.696Z,26.48
2024-05-09T14:08:55.310Z,26.91
2024-05-09T14:11:23.368Z,26.88
2024-05-09T14:13:50.919Z,27.72
2024-05-09T14:16:18.566Z,27.28
2024-05-09T14:18:46.318Z,27.82
2024-05-09T14:21:14.026Z,27.40
2024-05-09T14:23:41.707Z,27.53
2024-05-09T14:26:09.203Z,28.08
2024-05-09T14:28:36.917Z,28.13
2024-05-09T14:31:04.657Z,28.01
2024-05-09T14:33:32.682Z,28.05
2024-05-09T14:36:00.418Z,28.50
2024-05-09T14:38:28.115Z,28.57
2024-05-09T14:40:56.011Z,28.48
2024-05-09T14:43:23.731Z,28.17
2024-05-09T14:45:51.547Z,28.14
2024-05-09T14:48:19.946Z,28.55
2024-05-09T14:50:48.010Z,28.70
2024-05-09T14:53:15.678Z,28.79
2024-05-09T14:55:43.963Z,28.58
2024-05-09T14:58:12.677Z,28.67
2024-05-09T15:00:45.847Z,28.74
2024-05-09T15:03:21.358Z,28.86
2024-05-09T15:05:50.347Z,29.27
2024-05-09T15:08:19.294Z,29.24
2024-05-09T15:10:49.035Z,29.35
2024-05-09T15:13:19.223Z,29.49
2024-05-09T15:15:47.088Z,29.52
2024-05-09T15:18:14.804Z,29.60
2024-05-09T15:20:45.704Z,29.57
2024-05-09T15:23:13.711Z,29.49
2024-05-09T15:25:41.356Z,29.37
2024-05-09T15:28:09.597Z,29.61
2024-05-09T15:30:37.865Z,30.05
2024-05-09T15:33:07.117Z,29.95
2024-05-09T15:35:36.041Z,30.13
2024-05-09T15:38:04.821Z,30.29
2024-05-09T15:40:39.128Z,30.21
2024-05-09T15:43:09.767Z,30.10
2024-05-09T15:45:39.987Z,30.49
2024-05-09T15:48:08.754Z,30.56
2024-05-09T15:50:40.607Z,30.72
2024-05-09T15:53:10.968Z,30.47
2024-05-09T15:55:39.590Z,30.55
2024-05-09T15:58:07.736Z,30.98
2024-05-09T16:00:39.639Z,31.14
2024-05-09T16:03:10.796Z,31.00
2024-05-09T16:05:39.625Z,30.94
2024-05-09T16:08:07.577Z,31.08
2024-05-09T16:10:36.127Z,31.30
2024-05-09T16:13:04.284Z,31.53
2024-05-09T16:15:32.319Z,31.52
2024-05-09T16:18:00.333Z,31.81
2024-05-09T16:20:37.237Z,31.89
2024-05-09T16:23:08.754Z,31.49
2024-05-09T16:25:37.094Z,31.89
2024-05-09T16:28:08.598Z,32.15
2024-05-09T16:30:39.616Z,32.35
2024-05-09T16:33:09.287Z,32.25
2024-05-09T16:35:37.711Z,32.18
2024-05-09T16:38:05.727Z,32.27
2024-05-09T16:40:38.118Z,32.72
2024-05-09T16:43:09.479Z,32.77
2024-05-09T16:45:43.231Z,32.40
2024-05-09T16:48:11.282Z,32.67
2024-05-09T16:50:39.086Z,32.80
2024-05-09T16:53:07.225Z,33.15
2024-05-09T16:55:35.732Z,33.20
2024-05-09T16:58:04.460Z,33.51
2024-05-09T17:00:40.210Z,33.49
2024-05-09T17:03:14.262Z,33.73
2024-05-09T17:05:45.239Z,33.76
2024-05-09T17:08:15.514Z,34.06
2024-05-09T17:10:55.506Z,34.33
2024-05-09T17:13:23.725Z,34.25
2024-05-09T17:15:51.707Z,34.27
2024-05-09T17:18:19.472Z,34.35
2024-05-09T17:20:47.416Z,34.39
2024-05-09T17:23:15.146Z,34.60
2024-05-09T17:25:43.032Z,34.70
2024-05-09T17:28:11.222Z,34.76
2024-05-09T17:30:41.438Z,34.88
2024-05-09T17:33:11.593Z,35.13
2024-05-09T17:35:40.360Z,35.36
2024-05-09T17:38:08.106Z,35.44
2024-05-09T17:40:37.788Z,35.54
2024-05-09T17:43:09.281Z,35.53
2024-05-09T17:45:40.572Z,35.68
2024-05-09T17:48:10.790Z,35.64
2024-05-09T17:50:39.940Z,35.73
2024-05-09T17:53:07.945Z,35.81
2024-05-09T17:55:36.138Z,36.04
2024-05-09T17:58:04.758Z,36.22
2024-05-09T18:00:38.922Z,36.31
2024-05-09T18:03:13.707Z,36.53
2024-05-09T18:05:44.575Z,36.58
2024-05-09T18:08:13.375Z,36.57
2024-05-09T18:10:41.726Z,36.73
2024-05-09T18:13:10.468Z,36.94
2024-05-09T18:15:38.945Z,36.95
2024-05-09T18:18:07.513Z,37.09
2024-05-09T18:20:42.915Z,37.15
2024-05-09T18:23:14.823Z,37.32
2024-05-09T18:25:43.706Z,37.53
2024-05-09T18:28:11.458Z,37.56
2024-05-09T18:30:39.821Z,37.91
2024-05-09T18:33:09.596Z,37.95
2024-05-09T18:35:37.366Z,38.38
2024-05-09T18:38:05.494Z,38.50
2024-05-09T18:40:36.584Z,38.67
2024-05-09T18:43:07.584Z,39.01
2024-05-09T18:45:37.688Z,39.10
2024-05-09T18:48:07.418Z,39.35
2024-05-09T18:50:38.958Z,39.52
2024-05-09T18:53:12.554Z,39.75
2024-05-09T18:55:41.625Z,39.84
2024-05-09T18:58:09.536Z,40.05
2024-05-09T19:00:40.030Z,40.28
2024-05-09T19:03:12.839Z,40.71
2024-05-09T19:05:43.859Z,40.87
2024-05-09T19:08:13.185Z,41.10
2024-05-09T19:10:41.199Z,41.42
2024-05-09T19:13:12.214Z,41.72
2024-05-09T19:15:42.546Z,41.78
2024-05-09T19:18:11.998Z,41.96
2024-05-09T19:20:39.986Z,42.40
2024-05-09T19:23:07.903Z,42.78
2024-05-09T19:25:36.125Z,43.13
2024-05-09T19:28:05.020Z,43.42
2024-05-09T19:30:38.927Z,43.69
2024-05-09T19:33:11.930Z,44.10
2024-05-09T19:35:41.472Z,44.40
2024-05-09T19:38:09.101Z,44.78
2024-05-09T19:40:36.954Z,44.86
2024-05-09T19:43:05.966Z,44.86
2024-05-09T19:45:35.162Z,45.21
2024-05-09T19:48:04.872Z,45.50
2024-05-09T19:50:40.951Z,45.72
2024-05-09T19:53:12.612Z,45.96
2024-05-09T19:55:41.251Z,46.25
2024-05-09T19:58:09.482Z,46.37
2024-05-09T20:00:39.610Z,46.72
2024-05-09T20:03:13.926Z,46.89
2024-05-09T20:05:43.559Z,47.08
2024-05-09T20:08:11.321Z,47.43
2024-05-09T20:10:39.083Z,47.61
2024-05-09T20:13:08.168Z,47.91
2024-05-09T20:15:37.384Z,48.19
2024-05-09T20:18:06.170Z,48.54
2024-05-09T20:20:39.070Z,48.59
2024-05-09T20:23:10.370Z,48.61
2024-05-09T20:25:38.030Z,48.76
2024-05-09T20:28:06.033Z,48.97
2024-05-09T20:30:34.777Z,49.22
2024-05-09T20:33:04.954Z,49.21
2024-05-09T20:35:34.102Z,49.53
2024-05-09T20:38:03.002Z,49.57
2024-05-09T20:40:35.522Z,49.83
2024-05-09T20:43:07.065Z,50.04
2024-05-09T20:45:35.300Z,50.43
2024-05-09T20:48:03.264Z,50.59
2024-05-09T20:50:37.883Z,50.61
2024-05-09T20:53:12.692Z,51.03
2024-05-09T20:55:41.588Z,51.25
2024-05-09T20:58:09.855Z,51.42
2024-05-09T21:00:41.557Z,51.72
2024-05-09T21:03:13.142Z,51.75
2024-05-09T21:05:42.081Z,51.96
2024-05-09T21:08:09.877Z,52.14
2024-05-09T21:10:37.945Z,52.37
2024-05-09T21:13:06.817Z,52.49
2024-05-09T21:15:35.639Z,52.75
2024-05-09T21:18:04.339Z,53.07
2024-05-09T21:20:33.998Z,53.19
2024-05-09T21:23:02.264Z,53.34
2024-05-09T21:25:30.698Z,53.31
2024-05-09T21:27:58.345Z,53.52
2024-05-09T21:30:33.080Z,53.62
2024-05-09T21:33:09.281Z,53.80
2024-05-09T21:35:38.141Z,54.16
2024-05-09T21:38:06.829Z,54.40
2024-05-09T21:40:36.217Z,54.60
2024-05-09T21:43:05.825Z,54.72
2024-05-09T21:45:34.021Z,54.72
2024-05-09T21:48:05.597Z,55.18
2024-05-09T21:50:39.691Z,56.74
2024-05-09T21:53:10.709Z,57.08
2024-05-09T21:55:38.457Z,57.03
2024-05-09T21:58:06.191Z,57.16
2024-05-09T22:00:37.988Z,57.11
2024-05-09T22:03:07.483Z,57.42
2024-05-09T22:05:37.115Z,57.35
2024-05-09T22:08:05.405Z,57.60
2024-05-09T22:10:35.585Z,57.89
2024-05-09T22:13:05.862Z,58.02
2024-05-09T22:15:34.990Z,58.14
2024-05-09T22:18:02.792Z,58.18
2024-05-09T22:20:36.819Z,58.30
2024-05-09T22:23:07.663Z,58.46
2024-05-09T22:25:36.315Z,58.43
2024-05-09T22:28:04.436Z,58.73
2024-05-09T22:30:37.054Z,58.79
2024-05-09T22:33:08.280Z,58.74
2024-05-09T22:35:36.864Z,59.09
2024-05-09T22:38:04.553Z,59.16
2024-05-09T22:40:42.392Z,59.21
2024-05-09T22:43:20.674Z,59.69
2024-05-09T22:45:50.123Z,59.94
2024-05-09T22:48:18.407Z,60.11
2024-05-09T22:50:46.049Z,60.23
2024-05-09T22:53:13.560Z,60.06
2024-05-09T22:55:41.593Z,60.36
2024-05-09T22:58:09.323Z,60.56
2024-05-09T23:00:37.103Z,60.49
2024-05-09T23:03:05.096Z,60.98
2024-05-09T23:05:33.120Z,61.00
2024-05-09T23:08:01.735Z,61.12
2024-05-09T23:10:35.571Z,61.25
2024-05-09T23:13:06.367Z,61.58
2024-05-09T23:15:34.530Z,61.62
2024-05-09T23:18:02.393Z,61.61
2024-05-09T23:20:36.884Z,61.78
2024-05-09T23:23:07.598Z,62.01
2024-05-09T23:25:36.142Z,62.51
2024-05-09T23:28:04.156Z,62.51
2024-05-09T23:30:37.679Z,63.00
2024-05-09T23:33:09.844Z,63.07
2024-05-09T23:35:38.532Z,63.31
2024-05-09T23:38:06.202Z,63.85
2024-05-09T23:40:38.736Z,64.03
2024-05-09T23:43:09.763Z,64.29
2024-05-09T23:45:37.876Z,64.54
2024-05-09T23:48:06.037Z,64.48
2024-05-09T23:50:36.901Z,64.32
2024-05-09T23:53:07.758Z,64.33
2024-05-09T23:55:36.884Z,64.25
2024-05-09T23:58:05.443Z,64.17
